sensor_id;sensor_type;location;lat;lon;timestamp;P1;durP1;ratioP1;P2;durP2;ratioP2
11677;SDS011;5895;41.950;24.372;2022-12-07T07:50:34;10.00;;;5.22;;
11677;SDS011;5895;41.950;24.372;2022-12-07T07:53:03;8.07;;;5.78;;
11677;SDS011;5895;41.950;24.372;2022-12-07T07:55:30;9.20;;;5.78;;
11677;SDS011;5895;41.950;24.372;2022-12-07T07:57:58;8.18;;;5.32;;
11677;SDS011;5895;41.950;24.372;2022-12-07T08:00:25;9.15;;;5.35;;
11677;SDS011;5895;41.950;24.372;2022-12-07T08:02:52;6.82;;;5.13;;
11677;SDS011;5895;41.950;24.372;2022-12-07T08:05:19;6.75;;;5.50;;
11677;SDS011;5895;41.950;24.372;2022-12-07T08:07:48;9.65;;;5.85;;
11677;SDS011;5895;41.950;24.372;2022-12-07T08:10:15;8.57;;;5.53;;
11677;SDS011;5895;41.950;24.372;2022-12-07T08:12:42;6.95;;;5.18;;
11677;SDS011;5895;41.950;24.372;2022-12-07T08:15:27;7.78;;;5.63;;
11677;SDS011;5895;41.950;24.372;2022-12-07T08:17:56;8.82;;;5.97;;
11677;SDS011;5895;41.950;24.372;2022-12-07T08:20:23;9.55;;;5.40;;
11677;SDS011;5895;41.950;24.372;2022-12-07T08:22:52;6.15;;;5.10;;
11677;SDS011;5895;41.950;24.372;2022-12-07T08:25:19;6.95;;;4.90;;
11677;SDS011;5895;41.950;24.372;2022-12-07T08:27:47;7.72;;;5.45;;
11677;SDS011;5895;41.950;24.372;2022-12-07T08:30:14;9.20;;;5.25;;
11677;SDS011;5895;41.950;24.372;2022-12-07T08:32:43;9.40;;;5.00;;
11677;SDS011;5895;41.950;24.372;2022-12-07T08:35:11;7.28;;;4.90;;
11677;SDS011;5895;41.950;24.372;2022-12-07T08:37:38;9.40;;;5.55;;
11677;SDS011;5895;41.950;24.372;2022-12-07T08:40:08;6.63;;;5.60;;
11677;SDS011;5895;41.950;24.372;2022-12-07T08:42:36;7.05;;;5.15;;
11677;SDS011;5895;41.950;24.372;2022-12-07T08:45:07;8.77;;;4.63;;
11677;SDS011;5895;41.950;24.372;2022-12-07T08:47:37;8.50;;;4.65;;
11677;SDS011;5895;41.950;24.372;2022-12-07T08:50:07;7.53;;;5.50;;
11677;SDS011;5895;41.950;24.372;2022-12-07T08:52:37;7.50;;;5.28;;
11677;SDS011;5895;41.950;24.372;2022-12-07T08:55:08;7.43;;;5.25;;
11677;SDS011;5895;41.950;24.372;2022-12-07T08:57:37;6.03;;;5.00;;
11677;SDS011;5895;41.950;24.372;2022-12-07T09:00:06;6.00;;;5.05;;
11677;SDS011;5895;41.950;24.372;2022-12-07T09:02:34;9.13;;;5.53;;
11677;SDS011;5895;41.950;24.372;2022-12-07T09:05:01;7.03;;;4.82;;
11677;SDS011;5895;41.950;24.372;2022-12-07T09:07:29;7.47;;;5.28;;
11677;SDS011;5895;41.950;24.372;2022-12-07T09:09:59;7.32;;;4.35;;
11677;SDS011;5895;41.950;24.372;2022-12-07T09:12:27;8.30;;;4.70;;
11677;SDS011;5895;41.950;24.372;2022-12-07T09:14:54;7.55;;;4.90;;
11677;SDS011;5895;41.950;24.372;2022-12-07T09:17:22;8.52;;;4.65;;
11677;SDS011;5895;41.950;24.372;2022-12-07T09:19:49;5.70;;;4.28;;
11677;SDS011;5895;41.950;24.372;2022-12-07T09:22:16;5.72;;;4.35;;
11677;SDS011;5895;41.950;24.372;2022-12-07T09:24:43;7.15;;;4.80;;
11677;SDS011;5895;41.950;24.372;2022-12-07T09:27:11;5.63;;;4.70;;
11677;SDS011;5895;41.950;24.372;2022-12-07T09:29:39;5.20;;;4.43;;
11677;SDS011;5895;41.950;24.372;2022-12-07T09:32:06;10.70;;;4.68;;
11677;SDS011;5895;41.950;24.372;2022-12-07T09:34:34;7.20;;;4.32;;
11677;SDS011;5895;41.950;24.372;2022-12-07T09:37:01;5.80;;;4.55;;
11677;SDS011;5895;41.950;24.372;2022-12-07T09:39:29;9.68;;;4.75;;
11677;SDS011;5895;41.950;24.372;2022-12-07T09:41:56;5.65;;;4.28;;
11677;SDS011;5895;41.950;24.372;2022-12-07T09:44:25;12.98;;;4.35;;
11677;SDS011;5895;41.950;24.372;2022-12-07T09:46:55;7.07;;;3.75;;
11677;SDS011;5895;41.950;24.372;2022-12-07T09:49:25;8.65;;;4.05;;
11677;SDS011;5895;41.950;24.372;2022-12-07T09:51:59;5.78;;;4.07;;
11677;SDS011;5895;41.950;24.372;2022-12-07T09:54:28;9.25;;;3.85;;
11677;SDS011;5895;41.950;24.372;2022-12-07T09:56:57;7.35;;;4.35;;
11677;SDS011;5895;41.950;24.372;2022-12-07T09:59:25;6.60;;;3.90;;
11677;SDS011;5895;41.950;24.372;2022-12-07T10:01:52;7.43;;;3.78;;
11677;SDS011;5895;41.950;24.372;2022-12-07T10:04:22;4.03;;;3.30;;
11677;SDS011;5895;41.950;24.372;2022-12-07T10:06:52;8.30;;;4.32;;
11677;SDS011;5895;41.950;24.372;2022-12-07T10:09:20;6.78;;;4.07;;
11677;SDS011;5895;41.950;24.372;2022-12-07T10:12:00;8.10;;;3.60;;
11677;SDS011;5895;41.950;24.372;2022-12-07T10:14:30;5.13;;;3.60;;
11677;SDS011;5895;41.950;24.372;2022-12-07T10:16:59;6.85;;;3.50;;
11677;SDS011;5895;41.950;24.372;2022-12-07T10:19:29;6.03;;;3.45;;
11677;SDS011;5895;41.950;24.372;2022-12-07T10:22:02;3.40;;;3.10;;
11677;SDS011;5895;41.950;24.372;2022-12-07T10:24:36;5.38;;;3.05;;
11677;SDS011;5895;41.950;24.372;2022-12-07T10:27:04;3.55;;;3.25;;
11677;SDS011;5895;41.950;24.372;2022-12-07T10:29:32;4.20;;;3.10;;
11677;SDS011;5895;41.950;24.372;2022-12-07T10:32:03;5.53;;;2.80;;
11677;SDS011;5895;41.950;24.372;2022-12-07T10:34:34;10.63;;;3.45;;
11677;SDS011;5895;41.950;24.372;2022-12-07T10:37:15;6.60;;;2.92;;
11677;SDS011;5895;41.950;24.372;2022-12-07T10:39:44;7.05;;;3.08;;
11677;SDS011;5895;41.950;24.372;2022-12-07T10:42:16;4.13;;;2.80;;
11677;SDS011;5895;41.950;24.372;2022-12-07T10:44:45;4.03;;;2.58;;
11677;SDS011;5895;41.950;24.372;2022-12-07T10:47:25;5.72;;;3.10;;
11677;SDS011;5895;41.950;24.372;2022-12-07T10:50:12;3.80;;;2.97;;
11677;SDS011;5895;41.950;24.372;2022-12-07T10:55:46;8.70;;;2.78;;
11677;SDS011;5895;41.950;24.372;2022-12-07T10:58:35;3.90;;;2.70;;
11677;SDS011;5895;41.950;24.372;2022-12-07T11:01:13;4.75;;;2.90;;
11677;SDS011;5895;41.950;24.372;2022-12-07T11:03:54;4.72;;;3.15;;
11677;SDS011;5895;41.950;24.372;2022-12-07T11:06:43;6.15;;;2.80;;
11677;SDS011;5895;41.950;24.372;2022-12-07T11:09:28;4.97;;;2.80;;
11677;SDS011;5895;41.950;24.372;2022-12-07T11:12:05;4.88;;;2.90;;
11677;SDS011;5895;41.950;24.372;2022-12-07T11:14:40;4.30;;;2.80;;
11677;SDS011;5895;41.950;24.372;2022-12-07T11:17:18;5.72;;;2.50;;
11677;SDS011;5895;41.950;24.372;2022-12-07T11:22:33;4.80;;;2.60;;
11677;SDS011;5895;41.950;24.372;2022-12-07T11:25:17;4.63;;;2.58;;
11677;SDS011;5895;41.950;24.372;2022-12-07T11:27:56;4.05;;;2.50;;
11677;SDS011;5895;41.950;24.372;2022-12-07T11:30:40;4.57;;;2.70;;
11677;SDS011;5895;41.950;24.372;2022-12-07T11:33:15;4.03;;;2.50;;
11677;SDS011;5895;41.950;24.372;2022-12-07T11:36:01;4.43;;;2.70;;
11677;SDS011;5895;41.950;24.372;2022-12-07T11:38:41;4.28;;;2.85;;
11677;SDS011;5895;41.950;24.372;2022-12-07T11:41:12;4.68;;;2.67;;
11677;SDS011;5895;41.950;24.372;2022-12-07T11:43:50;6.95;;;2.55;;
11677;SDS011;5895;41.950;24.372;2022-12-07T11:46:22;5.03;;;2.85;;
11677;SDS011;5895;41.950;24.372;2022-12-07T11:48:54;5.40;;;2.78;;
11677;SDS011;5895;41.950;24.372;2022-12-07T11:51:29;3.80;;;2.80;;
11677;SDS011;5895;41.950;24.372;2022-12-07T11:54:12;4.30;;;2.70;;
11677;SDS011;5895;41.950;24.372;2022-12-07T11:56:42;5.13;;;2.60;;
11677;SDS011;5895;41.950;24.372;2022-12-07T11:59:12;4.22;;;2.55;;
11677;SDS011;5895;41.950;24.372;2022-12-07T12:01:48;3.17;;;2.45;;
11677;SDS011;5895;41.950;24.372;2022-12-07T12:04:30;6.53;;;2.80;;
11677;SDS011;5895;41.950;24.372;2022-12-07T12:07:06;5.88;;;2.70;;
11677;SDS011;5895;41.950;24.372;2022-12-07T12:09:35;4.70;;;2.58;;
11677;SDS011;5895;41.950;24.372;2022-12-07T12:12:16;5.07;;;2.58;;
11677;SDS011;5895;41.950;24.372;2022-12-07T12:14:59;5.50;;;2.83;;
11677;SDS011;5895;41.950;24.372;2022-12-07T12:17:43;7.40;;;2.60;;
11677;SDS011;5895;41.950;24.372;2022-12-07T12:20:21;3.58;;;2.80;;
11677;SDS011;5895;41.950;24.372;2022-12-07T12:22:53;2.70;;;2.47;;
11677;SDS011;5895;41.950;24.372;2022-12-07T12:25:27;4.82;;;2.70;;
11677;SDS011;5895;41.950;24.372;2022-12-07T12:27:58;4.05;;;2.90;;
11677;SDS011;5895;41.950;24.372;2022-12-07T12:30:33;3.25;;;2.50;;
11677;SDS011;5895;41.950;24.372;2022-12-07T12:33:03;4.03;;;2.22;;
11677;SDS011;5895;41.950;24.372;2022-12-07T12:35:33;3.97;;;2.40;;
11677;SDS011;5895;41.950;24.372;2022-12-07T12:38:24;2.65;;;2.35;;
11677;SDS011;5895;41.950;24.372;2022-12-07T12:40:56;3.83;;;2.50;;
11677;SDS011;5895;41.950;24.372;2022-12-07T12:43:40;2.75;;;2.42;;
11677;SDS011;5895;41.950;24.372;2022-12-07T12:49:33;3.95;;;2.90;;
11677;SDS011;5895;41.950;24.372;2022-12-07T12:55:15;5.25;;;3.40;;
11677;SDS011;5895;41.950;24.372;2022-12-07T12:57:48;3.97;;;2.78;;
11677;SDS011;5895;41.950;24.372;2022-12-07T13:03:53;5.53;;;3.00;;
11677;SDS011;5895;41.950;24.372;2022-12-07T13:06:32;4.05;;;2.80;;
11677;SDS011;5895;41.950;24.372;2022-12-07T13:09:03;4.85;;;3.08;;
11677;SDS011;5895;41.950;24.372;2022-12-07T13:11:32;4.80;;;2.80;;
11677;SDS011;5895;41.950;24.372;2022-12-07T13:23:22;3.70;;;3.30;;
11677;SDS011;5895;41.950;24.372;2022-12-07T13:25:56;4.78;;;2.88;;
11677;SDS011;5895;41.950;24.372;2022-12-07T13:28:32;3.83;;;2.70;;
11677;SDS011;5895;41.950;24.372;2022-12-07T13:31:14;3.45;;;2.65;;
11677;SDS011;5895;41.950;24.372;2022-12-07T13:33:48;3.70;;;2.88;;
11677;SDS011;5895;41.950;24.372;2022-12-07T13:36:17;7.25;;;3.00;;
11677;SDS011;5895;41.950;24.372;2022-12-07T13:38:49;3.00;;;2.53;;
11677;SDS011;5895;41.950;24.372;2022-12-07T13:41:21;8.20;;;3.25;;
11677;SDS011;5895;41.950;24.372;2022-12-07T13:43:51;9.73;;;3.15;;
11677;SDS011;5895;41.950;24.372;2022-12-07T13:46:22;4.40;;;2.95;;
11677;SDS011;5895;41.950;24.372;2022-12-07T13:48:53;5.82;;;3.22;;
11677;SDS011;5895;41.950;24.372;2022-12-07T13:51:22;3.63;;;2.65;;
11677;SDS011;5895;41.950;24.372;2022-12-07T13:53:52;4.05;;;2.92;;
11677;SDS011;5895;41.950;24.372;2022-12-07T13:56:21;4.50;;;3.03;;
11677;SDS011;5895;41.950;24.372;2022-12-07T13:58:53;5.70;;;2.90;;
11677;SDS011;5895;41.950;24.372;2022-12-07T14:01:21;3.30;;;3.00;;
11677;SDS011;5895;41.950;24.372;2022-12-07T14:03:48;4.35;;;2.92;;
11677;SDS011;5895;41.950;24.372;2022-12-07T14:06:22;7.38;;;3.00;;
11677;SDS011;5895;41.950;24.372;2022-12-07T14:09:06;5.22;;;2.70;;
11677;SDS011;5895;41.950;24.372;2022-12-07T14:11:34;7.63;;;3.28;;
11677;SDS011;5895;41.950;24.372;2022-12-07T14:14:02;4.07;;;2.90;;
11677;SDS011;5895;41.950;24.372;2022-12-07T14:16:32;7.55;;;3.17;;
11677;SDS011;5895;41.950;24.372;2022-12-07T14:19:01;3.50;;;3.20;;
11677;SDS011;5895;41.950;24.372;2022-12-07T14:21:32;3.28;;;2.95;;
11677;SDS011;5895;41.950;24.372;2022-12-07T14:24:11;5.35;;;2.90;;
11677;SDS011;5895;41.950;24.372;2022-12-07T14:26:42;3.95;;;3.00;;
11677;SDS011;5895;41.950;24.372;2022-12-07T14:29:21;4.03;;;3.58;;
11677;SDS011;5895;41.950;24.372;2022-12-07T14:31:56;5.20;;;3.10;;
11677;SDS011;5895;41.950;24.372;2022-12-07T14:34:24;5.05;;;3.47;;
11677;SDS011;5895;41.950;24.372;2022-12-07T14:36:53;6.18;;;3.40;;
11677;SDS011;5895;41.950;24.372;2022-12-07T14:39:20;4.30;;;3.00;;
11677;SDS011;5895;41.950;24.372;2022-12-07T14:41:47;5.72;;;3.58;;
11677;SDS011;5895;41.950;24.372;2022-12-07T14:44:18;5.88;;;3.20;;
11677;SDS011;5895;41.950;24.372;2022-12-07T14:46:46;9.13;;;3.72;;
11677;SDS011;5895;41.950;24.372;2022-12-07T14:49:13;4.85;;;2.97;;
11677;SDS011;5895;41.950;24.372;2022-12-07T14:51:41;7.38;;;3.45;;
11677;SDS011;5895;41.950;24.372;2022-12-07T14:54:14;4.97;;;3.45;;
11677;SDS011;5895;41.950;24.372;2022-12-07T14:56:44;5.70;;;3.63;;
11677;SDS011;5895;41.950;24.372;2022-12-07T14:59:14;6.95;;;3.65;;
11677;SDS011;5895;41.950;24.372;2022-12-07T15:01:42;5.00;;;3.40;;
11677;SDS011;5895;41.950;24.372;2022-12-07T15:04:09;3.88;;;3.30;;
11677;SDS011;5895;41.950;24.372;2022-12-07T15:06:36;4.60;;;3.63;;
11677;SDS011;5895;41.950;24.372;2022-12-07T15:09:04;6.45;;;3.85;;
11677;SDS011;5895;41.950;24.372;2022-12-07T15:11:33;8.55;;;3.70;;
11677;SDS011;5895;41.950;24.372;2022-12-07T15:14:00;5.13;;;4.03;;
11677;SDS011;5895;41.950;24.372;2022-12-07T15:16:43;4.25;;;3.55;;
11677;SDS011;5895;41.950;24.372;2022-12-07T15:19:12;7.00;;;3.95;;
11677;SDS011;5895;41.950;24.372;2022-12-07T15:21:40;4.18;;;3.40;;
11677;SDS011;5895;41.950;24.372;2022-12-07T15:24:08;4.70;;;3.90;;
11677;SDS011;5895;41.950;24.372;2022-12-07T15:26:38;4.55;;;3.65;;
11677;SDS011;5895;41.950;24.372;2022-12-07T15:29:06;3.97;;;3.60;;
11677;SDS011;5895;41.950;24.372;2022-12-07T15:31:33;5.07;;;4.10;;
11677;SDS011;5895;41.950;24.372;2022-12-07T15:34:01;8.77;;;4.32;;
11677;SDS011;5895;41.950;24.372;2022-12-07T15:36:30;4.50;;;4.07;;
11677;SDS011;5895;41.950;24.372;2022-12-07T15:38:58;5.10;;;4.20;;
11677;SDS011;5895;41.950;24.372;2022-12-07T15:41:26;12.77;;;9.77;;
11677;SDS011;5895;41.950;24.372;2022-12-07T15:43:54;20.13;;;14.57;;
11677;SDS011;5895;41.950;24.372;2022-12-07T15:46:40;16.20;;;12.82;;
11677;SDS011;5895;41.950;24.372;2022-12-07T15:49:09;24.83;;;20.05;;
11677;SDS011;5895;41.950;24.372;2022-12-07T15:51:38;27.58;;;22.90;;
11677;SDS011;5895;41.950;24.372;2022-12-07T15:54:05;21.38;;;16.63;;
11677;SDS011;5895;41.950;24.372;2022-12-07T15:56:33;23.83;;;20.27;;
11677;SDS011;5895;41.950;24.372;2022-12-07T15:59:01;23.05;;;18.63;;
11677;SDS011;5895;41.950;24.372;2022-12-07T16:01:28;15.82;;;11.98;;
11677;SDS011;5895;41.950;24.372;2022-12-07T16:03:56;13.27;;;11.73;;
11677;SDS011;5895;41.950;24.372;2022-12-07T16:06:24;12.73;;;11.43;;
11677;SDS011;5895;41.950;24.372;2022-12-07T16:08:52;11.75;;;10.25;;
11677;SDS011;5895;41.950;24.372;2022-12-07T16:11:19;10.55;;;9.48;;
11677;SDS011;5895;41.950;24.372;2022-12-07T16:13:47;15.07;;;12.40;;
11677;SDS011;5895;41.950;24.372;2022-12-07T16:16:16;16.45;;;12.98;;
11677;SDS011;5895;41.950;24.372;2022-12-07T16:18:44;16.83;;;11.32;;
11677;SDS011;5895;41.950;24.372;2022-12-07T16:21:13;16.05;;;12.43;;
11677;SDS011;5895;41.950;24.372;2022-12-07T16:23:40;13.15;;;10.57;;
11677;SDS011;5895;41.950;24.372;2022-12-07T16:26:09;13.88;;;12.15;;
11677;SDS011;5895;41.950;24.372;2022-12-07T16:28:38;12.52;;;9.43;;
11677;SDS011;5895;41.950;24.372;2022-12-07T16:31:06;11.75;;;10.55;;
11677;SDS011;5895;41.950;24.372;2022-12-07T16:33:38;10.55;;;8.65;;
11677;SDS011;5895;41.950;24.372;2022-12-07T16:36:06;20.08;;;16.33;;
11677;SDS011;5895;41.950;24.372;2022-12-07T16:38:35;17.55;;;12.55;;
11677;SDS011;5895;41.950;24.372;2022-12-07T16:41:04;17.48;;;12.07;;
11677;SDS011;5895;41.950;24.372;2022-12-07T16:43:34;17.25;;;14.60;;
11677;SDS011;5895;41.950;24.372;2022-12-07T16:46:01;16.77;;;14.68;;
11677;SDS011;5895;41.950;24.372;2022-12-07T16:48:29;15.07;;;12.88;;
11677;SDS011;5895;41.950;24.372;2022-12-07T16:50:58;16.42;;;11.20;;
11677;SDS011;5895;41.950;24.372;2022-12-07T16:53:29;11.85;;;9.73;;
11677;SDS011;5895;41.950;24.372;2022-12-07T16:55:57;9.77;;;8.77;;
11677;SDS011;5895;41.950;24.372;2022-12-07T16:58:24;22.27;;;15.63;;
11677;SDS011;5895;41.950;24.372;2022-12-07T17:00:51;25.75;;;20.30;;
11677;SDS011;5895;41.950;24.372;2022-12-07T17:03:18;15.02;;;11.85;;
11677;SDS011;5895;41.950;24.372;2022-12-07T17:05:45;12.52;;;10.32;;
11677;SDS011;5895;41.950;24.372;2022-12-07T17:08:15;19.50;;;14.13;;
11677;SDS011;5895;41.950;24.372;2022-12-07T17:10:43;10.88;;;8.38;;
11677;SDS011;5895;41.950;24.372;2022-12-07T17:13:11;29.48;;;22.90;;
11677;SDS011;5895;41.950;24.372;2022-12-07T17:15:59;25.92;;;18.02;;
11677;SDS011;5895;41.950;24.372;2022-12-07T17:18:28;15.23;;;12.55;;
11677;SDS011;5895;41.950;24.372;2022-12-07T17:20:59;16.95;;;13.88;;
11677;SDS011;5895;41.950;24.372;2022-12-07T17:23:30;17.23;;;11.52;;
11677;SDS011;5895;41.950;24.372;2022-12-07T17:26:03;15.27;;;11.73;;
11677;SDS011;5895;41.950;24.372;2022-12-07T17:28:31;9.95;;;8.27;;
11677;SDS011;5895;41.950;24.372;2022-12-07T17:30:58;11.43;;;10.20;;
11677;SDS011;5895;41.950;24.372;2022-12-07T17:33:26;10.82;;;9.02;;
11677;SDS011;5895;41.950;24.372;2022-12-07T17:35:53;11.80;;;7.93;;
11677;SDS011;5895;41.950;24.372;2022-12-07T17:38:20;9.65;;;8.30;;
11677;SDS011;5895;41.950;24.372;2022-12-07T17:40:49;8.57;;;6.95;;
11677;SDS011;5895;41.950;24.372;2022-12-07T17:43:16;9.98;;;7.55;;
11677;SDS011;5895;41.950;24.372;2022-12-07T17:45:43;15.82;;;10.32;;
11677;SDS011;5895;41.950;24.372;2022-12-07T17:48:11;18.35;;;15.55;;
11677;SDS011;5895;41.950;24.372;2022-12-07T17:50:38;27.23;;;19.77;;
11677;SDS011;5895;41.950;24.372;2022-12-07T17:53:22;19.92;;;16.52;;
11677;SDS011;5895;41.950;24.372;2022-12-07T17:55:53;18.58;;;13.90;;
11677;SDS011;5895;41.950;24.372;2022-12-07T17:58:20;16.55;;;14.68;;
11677;SDS011;5895;41.950;24.372;2022-12-07T18:00:47;27.95;;;18.45;;
11677;SDS011;5895;41.950;24.372;2022-12-07T18:03:14;13.88;;;9.73;;
11677;SDS011;5895;41.950;24.372;2022-12-07T18:05:42;17.60;;;13.77;;
11677;SDS011;5895;41.950;24.372;2022-12-07T18:08:11;10.25;;;9.23;;
11677;SDS011;5895;41.950;24.372;2022-12-07T18:10:38;33.38;;;21.00;;
11677;SDS011;5895;41.950;24.372;2022-12-07T18:13:07;20.60;;;14.57;;
11677;SDS011;5895;41.950;24.372;2022-12-07T18:15:55;15.70;;;12.30;;
11677;SDS011;5895;41.950;24.372;2022-12-07T18:18:22;14.30;;;11.65;;
11677;SDS011;5895;41.950;24.372;2022-12-07T18:20:50;14.10;;;11.05;;
11677;SDS011;5895;41.950;24.372;2022-12-07T18:23:17;16.02;;;13.90;;
11677;SDS011;5895;41.950;24.372;2022-12-07T18:25:46;21.33;;;17.55;;
11677;SDS011;5895;41.950;24.372;2022-12-07T18:28:16;15.95;;;13.75;;
11677;SDS011;5895;41.950;24.372;2022-12-07T18:30:43;15.68;;;13.20;;
11677;SDS011;5895;41.950;24.372;2022-12-07T18:33:15;22.98;;;16.42;;
11677;SDS011;5895;41.950;24.372;2022-12-07T18:35:43;18.50;;;13.52;;
11677;SDS011;5895;41.950;24.372;2022-12-07T18:38:10;16.35;;;14.60;;
11677;SDS011;5895;41.950;24.372;2022-12-07T18:40:37;16.15;;;12.20;;
11677;SDS011;5895;41.950;24.372;2022-12-07T18:43:04;18.00;;;13.18;;
11677;SDS011;5895;41.950;24.372;2022-12-07T18:45:35;14.57;;;12.30;;
11677;SDS011;5895;41.950;24.372;2022-12-07T18:48:03;14.25;;;12.05;;
11677;SDS011;5895;41.950;24.372;2022-12-07T18:50:30;12.55;;;10.40;;
11677;SDS011;5895;41.950;24.372;2022-12-07T18:52:58;10.85;;;9.48;;
11677;SDS011;5895;41.950;24.372;2022-12-07T18:55:26;8.88;;;7.13;;
11677;SDS011;5895;41.950;24.372;2022-12-07T18:57:54;8.23;;;7.30;;
11677;SDS011;5895;41.950;24.372;2022-12-07T19:00:23;8.57;;;6.68;;
11677;SDS011;5895;41.950;24.372;2022-12-07T19:02:53;8.10;;;6.50;;
11677;SDS011;5895;41.950;24.372;2022-12-07T19:05:21;8.35;;;6.75;;
11677;SDS011;5895;41.950;24.372;2022-12-07T19:07:48;7.97;;;6.80;;
11677;SDS011;5895;41.950;24.372;2022-12-07T19:10:16;7.63;;;6.05;;
11677;SDS011;5895;41.950;24.372;2022-12-07T19:12:44;8.93;;;6.65;;
11677;SDS011;5895;41.950;24.372;2022-12-07T19:15:12;8.18;;;6.45;;
11677;SDS011;5895;41.950;24.372;2022-12-07T19:17:40;7.13;;;6.43;;
11677;SDS011;5895;41.950;24.372;2022-12-07T19:20:11;7.95;;;6.88;;
11677;SDS011;5895;41.950;24.372;2022-12-07T19:22:40;10.65;;;7.00;;
11677;SDS011;5895;41.950;24.372;2022-12-07T19:25:08;8.80;;;6.63;;
11677;SDS011;5895;41.950;24.372;2022-12-07T19:27:35;11.82;;;9.52;;
11677;SDS011;5895;41.950;24.372;2022-12-07T19:30:02;14.07;;;11.55;;
11677;SDS011;5895;41.950;24.372;2022-12-07T19:32:30;11.48;;;9.90;;
11677;SDS011;5895;41.950;24.372;2022-12-07T19:34:57;7.53;;;6.82;;
11677;SDS011;5895;41.950;24.372;2022-12-07T19:37:26;9.00;;;7.05;;
11677;SDS011;5895;41.950;24.372;2022-12-07T19:39:53;9.35;;;7.03;;
11677;SDS011;5895;41.950;24.372;2022-12-07T19:42:21;8.63;;;7.13;;
11677;SDS011;5895;41.950;24.372;2022-12-07T19:44:48;11.45;;;6.75;;
11677;SDS011;5895;41.950;24.372;2022-12-07T19:47:15;11.02;;;7.63;;
11677;SDS011;5895;41.950;24.372;2022-12-07T19:49:43;7.63;;;6.47;;
11677;SDS011;5895;41.950;24.372;2022-12-07T19:52:11;8.70;;;7.80;;
11677;SDS011;5895;41.950;24.372;2022-12-07T19:54:40;15.18;;;12.18;;
11677;SDS011;5895;41.950;24.372;2022-12-07T19:57:07;13.45;;;10.98;;
11677;SDS011;5895;41.950;24.372;2022-12-07T19:59:39;10.65;;;8.55;;
11677;SDS011;5895;41.950;24.372;2022-12-07T20:02:08;11.98;;;8.90;;
11677;SDS011;5895;41.950;24.372;2022-12-07T20:04:38;12.80;;;11.05;;
11677;SDS011;5895;41.950;24.372;2022-12-07T20:07:06;12.77;;;10.40;;
11677;SDS011;5895;41.950;24.372;2022-12-07T20:09:33;14.13;;;9.07;;
11677;SDS011;5895;41.950;24.372;2022-12-07T20:12:02;9.38;;;8.27;;
11677;SDS011;5895;41.950;24.372;2022-12-07T20:14:46;13.18;;;8.82;;
11677;SDS011;5895;41.950;24.372;2022-12-07T20:17:13;12.85;;;11.20;;
11677;SDS011;5895;41.950;24.372;2022-12-07T20:19:41;10.07;;;9.05;;
11677;SDS011;5895;41.950;24.372;2022-12-07T20:22:08;9.15;;;8.18;;
11677;SDS011;5895;41.950;24.372;2022-12-07T20:24:35;10.98;;;8.57;;
11677;SDS011;5895;41.950;24.372;2022-12-07T20:27:04;9.98;;;8.65;;
11677;SDS011;5895;41.950;24.372;2022-12-07T20:29:32;8.52;;;7.32;;
11677;SDS011;5895;41.950;24.372;2022-12-07T20:31:59;10.32;;;7.30;;
11677;SDS011;5895;41.950;24.372;2022-12-07T20:34:26;7.78;;;6.55;;
11677;SDS011;5895;41.950;24.372;2022-12-07T20:36:54;7.28;;;6.25;;
11677;SDS011;5895;41.950;24.372;2022-12-07T20:39:21;8.30;;;6.07;;
11677;SDS011;5895;41.950;24.372;2022-12-07T20:41:49;10.80;;;8.18;;
11677;SDS011;5895;41.950;24.372;2022-12-07T20:44:35;13.75;;;11.02;;
11677;SDS011;5895;41.950;24.372;2022-12-07T20:47:03;14.10;;;10.38;;
11677;SDS011;5895;41.950;24.372;2022-12-07T20:49:31;18.60;;;13.52;;
11677;SDS011;5895;41.950;24.372;2022-12-07T20:51:59;15.27;;;11.93;;
11677;SDS011;5895;41.950;24.372;2022-12-07T20:54:26;14.23;;;10.05;;
11677;SDS011;5895;41.950;24.372;2022-12-07T20:56:53;13.45;;;10.55;;
11677;SDS011;5895;41.950;24.372;2022-12-07T20:59:20;12.82;;;8.75;;
11677;SDS011;5895;41.950;24.372;2022-12-07T21:01:49;9.73;;;7.50;;
11677;SDS011;5895;41.950;24.372;2022-12-07T21:04:17;7.93;;;6.15;;
11677;SDS011;5895;41.950;24.372;2022-12-07T21:06:44;5.60;;;5.10;;
11677;SDS011;5895;41.950;24.372;2022-12-07T21:09:11;8.40;;;7.13;;
11677;SDS011;5895;41.950;24.372;2022-12-07T21:11:38;11.77;;;8.60;;
11677;SDS011;5895;41.950;24.372;2022-12-07T21:14:06;9.77;;;7.45;;
11677;SDS011;5895;41.950;24.372;2022-12-07T21:16:34;9.52;;;7.30;;
11677;SDS011;5895;41.950;24.372;2022-12-07T21:19:02;9.13;;;7.53;;
11677;SDS011;5895;41.950;24.372;2022-12-07T21:21:30;8.85;;;7.07;;
11677;SDS011;5895;41.950;24.372;2022-12-07T21:23:58;8.38;;;5.82;;
11677;SDS011;5895;41.950;24.372;2022-12-07T21:26:26;6.55;;;5.88;;
11677;SDS011;5895;41.950;24.372;2022-12-07T21:28:54;6.68;;;5.60;;
11677;SDS011;5895;41.950;24.372;2022-12-07T21:31:22;5.93;;;4.95;;
11677;SDS011;5895;41.950;24.372;2022-12-07T21:33:50;3.70;;;3.40;;
11677;SDS011;5895;41.950;24.372;2022-12-07T21:36:19;3.80;;;3.17;;
11677;SDS011;5895;41.950;24.372;2022-12-07T21:38:47;3.75;;;3.42;;
11677;SDS011;5895;41.950;24.372;2022-12-07T21:41:15;4.88;;;3.45;;
11677;SDS011;5895;41.950;24.372;2022-12-07T21:43:44;3.92;;;3.60;;
11677;SDS011;5895;41.950;24.372;2022-12-07T21:46:12;4.07;;;3.67;;
11677;SDS011;5895;41.950;24.372;2022-12-07T21:48:39;3.60;;;2.97;;
11677;SDS011;5895;41.950;24.372;2022-12-07T21:51:07;4.63;;;2.95;;
11677;SDS011;5895;41.950;24.372;2022-12-07T21:53:38;3.10;;;2.80;;
11677;SDS011;5895;41.950;24.372;2022-12-07T21:56:09;3.33;;;3.03;;
11677;SDS011;5895;41.950;24.372;2022-12-07T21:58:41;3.28;;;2.97;;
11677;SDS011;5895;41.950;24.372;2022-12-07T22:01:13;4.00;;;3.33;;
11677;SDS011;5895;41.950;24.372;2022-12-07T22:03:41;3.38;;;3.08;;
11677;SDS011;5895;41.950;24.372;2022-12-07T22:06:10;3.47;;;3.17;;
11677;SDS011;5895;41.950;24.372;2022-12-07T22:08:39;3.38;;;3.03;;
11677;SDS011;5895;41.950;24.372;2022-12-07T22:11:07;3.38;;;3.03;;
11677;SDS011;5895;41.950;24.372;2022-12-07T22:13:35;4.38;;;2.80;;
11677;SDS011;5895;41.950;24.372;2022-12-07T22:16:20;6.65;;;2.95;;
11677;SDS011;5895;41.950;24.372;2022-12-07T22:18:47;3.08;;;2.80;;
11677;SDS011;5895;41.950;24.372;2022-12-07T22:21:14;4.85;;;2.55;;
11677;SDS011;5895;41.950;24.372;2022-12-07T22:23:43;6.25;;;3.10;;
11677;SDS011;5895;41.950;24.372;2022-12-07T22:26:10;3.38;;;3.08;;
11677;SDS011;5895;41.950;24.372;2022-12-07T22:28:39;3.65;;;2.78;;
11677;SDS011;5895;41.950;24.372;2022-12-07T22:31:09;2.92;;;2.70;;
11677;SDS011;5895;41.950;24.372;2022-12-07T22:33:38;3.33;;;2.75;;
11677;SDS011;5895;41.950;24.372;2022-12-07T22:36:06;3.10;;;2.70;;
11677;SDS011;5895;41.950;24.372;2022-12-07T22:38:34;2.85;;;2.65;;
11677;SDS011;5895;41.950;24.372;2022-12-07T22:41:08;2.58;;;2.38;;
11677;SDS011;5895;41.950;24.372;2022-12-07T22:43:36;5.20;;;3.42;;
11677;SDS011;5895;41.950;24.372;2022-12-07T22:46:04;2.60;;;2.40;;
11677;SDS011;5895;41.950;24.372;2022-12-07T22:48:31;3.53;;;2.50;;
11677;SDS011;5895;41.950;24.372;2022-12-07T22:50:58;3.15;;;2.42;;
11677;SDS011;5895;41.950;24.372;2022-12-07T22:53:26;3.45;;;2.65;;
11677;SDS011;5895;41.950;24.372;2022-12-07T22:55:53;2.65;;;2.35;;
11677;SDS011;5895;41.950;24.372;2022-12-07T22:58:22;2.88;;;2.60;;
11677;SDS011;5895;41.950;24.372;2022-12-07T23:00:49;3.28;;;2.10;;
11677;SDS011;5895;41.950;24.372;2022-12-07T23:03:16;2.35;;;2.15;;
11677;SDS011;5895;41.950;24.372;2022-12-07T23:05:43;2.28;;;2.08;;
11677;SDS011;5895;41.950;24.372;2022-12-07T23:08:12;2.30;;;2.10;;
11677;SDS011;5895;41.950;24.372;2022-12-07T23:10:40;2.08;;;1.88;;
11677;SDS011;5895;41.950;24.372;2022-12-07T23:13:10;1.80;;;1.67;;